Time;durP1;ratioP1;P1;durP2;ratioP2;P2;SDS_P1;SDS_P2;PMS_P1;PMS_P2;Temp;Humidity;BMP_temperature;BMP_pressure;BME280_temperature;BME280_humidity;BME280_pressure;Samples;Min_cycle;Max_cycle;Signal;HPM_P1;HPM_P2
2021/08/22 00:01:31;;;;;;;7.65;4.38;;;;;;;20.31;76.08;101233.19;5052894;28;20053;-64
2021/08/22 00:03:59;;;;;;;7.35;4.28;;;;;;;20.51;74.79;101232.84;5052824;28;20047;-69
2021/08/22 00:06:26;;;;;;;5.63;3.88;;;;;;;20.34;75.51;101229.66;5054245;28;20056;-70
2021/08/22 00:08:53;;;;;;;6.82;4.25;;;;;;;20.27;75.29;101227.50;5053809;28;20389;-69
2021/08/22 00:11:21;;;;;;;11.10;4.82;;;;;;;20.49;74.97;101220.38;5035564;28;20561;-62
2021/08/22 00:13:48;;;;;;;9.65;4.57;;;;;;;20.38;75.26;101216.56;5039239;28;20045;-63
2021/08/22 00:16:15;;;;;;;7.22;4.20;;;;;;;20.29;75.79;101222.38;5032487;28;20053;-62
2021/08/22 00:18:43;;;;;;;7.10;4.43;;;;;;;20.37;75.20;101220.50;5015586;28;20057;-62
2021/08/22 00:21:10;;;;;;;7.97;4.60;;;;;;;20.46;74.83;101223.91;5031893;28;20054;-62
2021/08/22 00:23:37;;;;;;;6.35;3.83;;;;;;;20.37;75.60;101220.50;5033711;28;20075;-62
2021/08/22 00:26:04;;;;;;;7.97;4.38;;;;;;;20.23;76.14;101228.59;5032843;28;20041;-63
2021/08/22 00:28:32;;;;;;;7.60;4.60;;;;;;;20.23;76.43;101226.63;5033537;28;20577;-63
2021/08/22 00:30:59;;;;;;;6.68;4.40;;;;;;;20.51;75.08;101229.22;5015387;28;20484;-63
2021/08/22 00:33:27;;;;;;;7.45;4.60;;;;;;;21.02;72.44;101222.28;5033400;28;20058;-63
2021/08/22 00:35:54;;;;;;;8.65;4.50;;;;;;;20.50;74.51;101236.00;5031787;28;20053;-62
2021/08/22 00:38:21;;;;;;;7.90;4.88;;;;;;;20.22;75.99;101238.19;5033846;28;20058;-64
2021/08/22 00:40:49;;;;;;;7.07;4.80;;;;;;;20.13;76.07;101241.97;5033331;28;20056;-64
2021/08/22 00:43:16;;;;;;;6.88;4.47;;;;;;;20.34;75.96;101238.03;5015082;28;20049;-62
2021/08/22 00:45:43;;;;;;;8.52;4.68;;;;;;;20.48;74.59;101233.56;5033828;28;20061;-63
2021/08/22 00:48:12;;;;;;;7.50;4.47;;;;;;;20.34;75.27;101246.44;5015437;28;20053;-63
2021/08/22 00:50:39;;;;;;;8.27;4.50;;;;;;;20.41;75.08;101241.00;5015619;28;20135;-63
2021/08/22 00:53:07;;;;;;;9.30;4.80;;;;;;;20.29;76.11;101241.13;5031848;28;20061;-63
2021/08/22 00:55:34;;;;;;;6.38;4.25;;;;;;;20.30;76.15;101248.34;5032095;28;20050;-63
2021/08/22 00:58:04;;;;;;;6.60;4.60;;;;;;;20.48;75.57;101243.94;5033396;28;20058;-63
2021/08/22 01:00:31;;;;;;;8.27;4.47;;;;;;;20.42;75.40;101245.41;5033229;28;20292;-63
2021/08/22 01:03:08;;;;;;;7.25;4.50;;;;;;;20.13;76.50;101246.75;5031487;28;20065;-64
2021/08/22 01:05:58;;;;;;;7.88;4.88;;;;;;;20.20;76.26;101251.72;5031735;28;20049;-63
2021/08/22 01:08:29;;;;;;;9.45;4.70;;;;;;;20.20;76.46;101255.34;5032225;28;20054;-63
2021/08/22 01:11:02;;;;;;;9.90;4.60;;;;;;;20.41;76.05;101255.00;5031723;28;20087;-63
2021/08/22 01:13:33;;;;;;;6.72;4.53;;;;;;;20.28;76.27;101257.09;5043419;28;20056;-63
2021/08/22 01:16:02;;;;;;;7.30;4.68;;;;;;;20.22;76.77;101252.97;5035251;28;20053;-63
2021/08/22 01:18:30;;;;;;;9.23;5.38;;;;;;;20.25;76.48;101255.03;5053111;28;20076;-63
2021/08/22 01:21:07;;;;;;;10.77;5.00;;;;;;;20.02;76.93;101257.69;5035023;28;20053;-63
2021/08/22 01:23:38;;;;;;;7.57;4.63;;;;;;;20.09;77.45;101255.06;5051637;28;20049;-62
2021/08/22 01:26:06;;;;;;;7.53;4.57;;;;;;;20.29;76.36;101257.91;5051706;28;20508;-62
2021/08/22 01:28:34;;;;;;;9.77;5.50;;;;;;;19.79;78.29;101255.91;5051317;28;20048;-62
2021/08/22 01:31:07;;;;;;;9.00;5.43;;;;;;;19.79;79.05;101267.91;5051536;28;20563;-62
2021/08/22 01:33:34;;;;;;;8.55;5.32;;;;;;;19.75;78.78;101274.59;5053074;28;20053;-63
2021/08/22 01:36:02;;;;;;;8.23;5.07;;;;;;;19.44;79.88;101274.59;5052434;28;20041;-63
2021/08/22 01:38:29;;;;;;;8.35;5.50;;;;;;;19.46;80.34;101272.22;5055348;28;20056;-63
2021/08/22 01:40:57;;;;;;;9.38;6.55;;;;;;;19.38;80.32;101274.03;5056155;28;20512;-63
2021/08/22 01:43:25;;;;;;;8.95;5.20;;;;;;;19.46;80.07;101272.22;5055032;28;20049;-63
2021/08/22 01:45:55;;;;;;;11.20;5.90;;;;;;;19.53;80.09;101270.44;5056427;28;20052;-63
2021/08/22 01:48:24;;;;;;;8.07;4.95;;;;;;;19.68;78.54;101272.41;5038764;28;20053;-63
2021/08/22 01:50:59;;;;;;;10.18;5.10;;;;;;;19.66;78.81;101263.59;5054970;28;20481;-63
2021/08/22 01:53:28;;;;;;;9.60;5.15;;;;;;;19.45;79.05;101274.22;5056136;28;20067;-63
2021/08/22 01:55:56;;;;;;;7.38;4.90;;;;;;;19.45;79.34;101279.81;5055011;28;20068;-63
2021/08/22 01:58:24;;;;;;;7.75;5.05;;;;;;;19.30;79.28;101269.41;5054579;28;20060;-63
2021/08/22 02:00:52;;;;;;;8.85;4.80;;;;;;;19.32;79.72;101275.47;5056271;28;20052;-63
2021/08/22 02:03:41;;;;;;;6.82;4.72;;;;;;;19.46;78.71;101280.59;5054497;28;20412;-63
2021/08/22 02:06:23;;;;;;;6.72;4.47;;;;;;;19.28;78.62;101282.94;5056128;28;20045;-63
2021/08/22 02:08:56;;;;;;;8.55;4.57;;;;;;;19.06;79.31;101291.88;5056104;28;20564;-62
2021/08/22 02:11:25;;;;;;;9.95;4.60;;;;;;;18.99;79.83;101300.03;5037135;28;20053;-62
2021/08/22 02:13:54;;;;;;;8.07;4.30;;;;;;;19.24;78.95;101276.41;5040885;28;20068;-63
2021/08/22 02:16:25;;;;;;;7.90;4.55;;;;;;;19.33;77.98;101285.47;5034610;28;20045;-62
2021/08/22 02:18:55;;;;;;;9.88;4.43;;;;;;;19.21;77.80;101284.69;5035222;28;20053;-62
2021/08/22 02:21:23;;;;;;;9.23;4.85;;;;;;;19.00;78.62;101291.31;5018174;28;20060;-62
2021/08/22 02:23:52;;;;;;;7.47;4.40;;;;;;;19.08;78.62;101289.53;5001557;28;20064;-63
2021/08/22 02:26:21;;;;;;;9.02;4.80;;;;;;;19.12;77.41;101289.63;5036069;28;20054;-63
2021/08/22 02:29:06;;;;;;;7.57;4.30;;;;;;;19.12;77.99;101292.44;5034468;28;20065;-63
2021/08/22 02:31:34;;;;;;;8.23;4.53;;;;;;;19.19;77.52;101281.44;5034261;28;20045;-63
2021/08/22 02:34:01;;;;;;;8.88;4.45;;;;;;;19.03;77.48;101295.38;5035558;28;20060;-63
2021/08/22 02:36:28;;;;;;;10.70;5.00;;;;;;;18.99;77.92;101288.88;5035637;28;20045;-63
2021/08/22 02:38:56;;;;;;;7.47;3.90;;;;;;;18.78;78.42;101289.09;5035426;28;20448;-63
2021/08/22 02:41:24;;;;;;;9.25;4.95;;;;;;;18.72;78.42;101292.50;5035330;28;20052;-63
2021/08/22 02:43:53;;;;;;;9.90;4.45;;;;;;;18.81;77.83;101295.94;5034035;28;20061;-63
2021/08/22 02:46:20;;;;;;;8.93;4.93;;;;;;;18.52;78.15;101290.66;5036252;28;20126;-63
2021/08/22 02:48:48;;;;;;;9.57;4.57;;;;;;;18.63;77.96;101298.22;5034956;28;20050;-63
2021/08/22 02:51:15;;;;;;;13.32;4.70;;;;;;;18.75;77.30;101300.97;5035275;28;20492;-63
2021/08/22 02:53:42;;;;;;;10.50;5.05;;;;;;;18.62;75.92;101295.78;5035191;28;20049;-63
2021/08/22 02:56:09;;;;;;;15.13;4.97;;;;;;;18.56;76.18;101291.59;5035530;28;20053;-62
2021/08/22 02:58:37;;;;;;;12.18;5.00;;;;;;;18.59;75.18;101293.69;5034959;28;20050;-62
2021/08/22 03:01:04;;;;;;;11.10;4.80;;;;;;;18.49;75.16;101295.00;5033873;28;20484;-63
2021/08/22 03:03:32;;;;;;;10.75;4.68;;;;;;;18.46;75.26;101298.47;5034954;28;20060;-63
2021/08/22 03:05:59;;;;;;;9.80;4.80;;;;;;;18.37;75.40;101297.78;5033552;28;20638;-62
2021/08/22 03:08:26;;;;;;;11.27;4.75;;;;;;;18.22;75.07;101300.47;5034955;28;20041;-63
2021/08/22 03:10:54;;;;;;;10.40;4.63;;;;;;;18.14;76.40;101302.22;5035395;28;20488;-63
2021/08/22 03:13:21;;;;;;;11.95;5.07;;;;;;;18.12;75.91;101292.56;5043657;28;20456;-63
2021/08/22 03:15:48;;;;;;;14.00;5.00;;;;;;;18.02;76.34;101287.47;5054831;28;20049;-63
2021/08/22 03:18:16;;;;;;;11.95;4.72;;;;;;;18.22;75.57;101292.13;5054498;28;20076;-63
2021/08/22 03:20:44;;;;;;;11.60;4.82;;;;;;;18.34;75.21;101292.88;5054543;28;20415;-63
2021/08/22 03:23:12;;;;;;;11.80;4.47;;;;;;;18.45;74.48;101282.91;5052935;28;20057;-62
2021/08/22 03:25:40;;;;;;;14.55;5.20;;;;;;;18.48;74.16;101290.56;5053205;28;20049;-63
2021/08/22 03:28:07;;;;;;;14.80;4.90;;;;;;;18.42;73.82;101286.41;5054366;28;20059;-63
2021/08/22 03:30:34;;;;;;;12.57;4.53;;;;;;;18.25;74.85;101295.03;5054612;28;20048;-64
2021/08/22 03:33:02;;;;;;;12.23;5.25;;;;;;;18.02;74.75;101291.09;5053822;28;20048;-63
2021/08/22 03:35:29;;;;;;;12.45;5.03;;;;;;;17.98;74.83;101282.59;5054357;28;20068;-63
2021/08/22 03:37:56;;;;;;;15.27;5.47;;;;;;;17.95;74.46;101288.88;5054433;28;20056;-63
2021/08/22 03:40:23;;;;;;;16.05;5.57;;;;;;;18.08;73.55;101281.31;5054230;28;20128;-66
2021/08/22 03:42:51;;;;;;;16.85;5.32;;;;;;;17.87;74.21;101288.97;5053811;28;20041;-63
2021/08/22 03:45:18;;;;;;;15.25;5.75;;;;;;;17.81;74.93;101285.63;5054136;28;20040;-63
2021/08/22 03:47:46;;;;;;;13.23;6.10;;;;;;;17.94;74.76;101292.00;5054183;28;20055;-62
2021/08/22 03:50:13;;;;;;;12.68;5.47;;;;;;;17.95;74.43;101300.03;5052900;28;20049;-62
2021/08/22 03:52:40;;;;;;;13.02;5.30;;;;;;;18.10;73.72;101304.06;5054143;28;20055;-62
2021/08/22 03:55:07;;;;;;;14.82;5.40;;;;;;;17.97;74.05;101303.25;5053919;28;20048;-62
2021/08/22 03:57:35;;;;;;;11.45;4.78;;;;;;;18.10;74.10;101300.50;5053737;28;20064;-63
2021/08/22 04:00:02;;;;;;;15.65;5.68;;;;;;;18.16;73.41;101299.09;5053951;28;20045;-63
2021/08/22 04:02:37;;;;;;;12.48;5.00;;;;;;;17.87;73.73;101292.59;5052434;28;20435;-62
2021/08/22 04:05:34;;;;;;;13.95;4.85;;;;;;;17.93;73.58;101296.78;5033823;28;20128;-63
2021/08/22 04:08:02;;;;;;;14.27;5.50;;;;;;;17.76;74.03;101298.97;5054214;28;20052;-63
2021/08/22 04:10:29;;;;;;;11.95;5.00;;;;;;;17.63;74.58;101298.16;5053945;28;20056;-63
2021/08/22 04:12:57;;;;;;;12.18;4.90;;;;;;;17.51;75.12;101300.09;5047319;28;20475;-63
2021/08/22 04:15:24;;;;;;;15.57;5.63;;;;;;;17.77;74.70;101307.00;5033790;28;20049;-62
2021/08/22 04:17:51;;;;;;;12.25;4.75;;;;;;;17.79;74.04;101313.03;5032348;28;20062;-70
2021/08/22 04:20:18;;;;;;;14.85;5.47;;;;;;;17.69;74.15;101307.94;5033853;28;20042;-71
2021/08/22 04:22:46;;;;;;;14.23;5.55;;;;;;;17.86;73.72;101315.22;5033639;28;20053;-70
2021/08/22 04:25:13;;;;;;;15.85;5.05;;;;;;;17.69;74.20;101321.03;5033680;28;20061;-63
2021/08/22 04:27:41;;;;;;;15.02;5.90;;;;;;;17.81;74.06;101321.03;5033613;28;20045;-63
2021/08/22 04:30:09;;;;;;;14.13;4.70;;;;;;;17.73;74.25;101316.41;5033742;28;20060;-69
2021/08/22 04:32:37;;;;;;;14.32;5.45;;;;;;;17.57;74.80;101310.66;5033447;28;20061;-70
2021/08/22 04:35:09;;;;;;;16.83;5.20;;;;;;;17.67;74.57;101310.25;5033501;28;20049;-70
2021/08/22 04:37:37;;;;;;;16.10;5.43;;;;;;;17.70;74.10;101308.72;5033594;28;20049;-70
2021/08/22 04:40:07;;;;;;;12.85;4.88;;;;;;;17.71;73.81;101307.56;5033753;28;20049;-70
2021/08/22 04:42:37;;;;;;;13.70;4.88;;;;;;;17.67;73.21;101307.44;5033340;28;20133;-70
2021/08/22 04:45:12;;;;;;;15.75;5.45;;;;;;;17.45;74.89;101312.59;5016520;28;20058;-62
2021/08/22 04:47:39;;;;;;;10.45;4.53;;;;;;;17.77;73.91;101314.53;5031642;28;20588;-63
2021/08/22 04:50:07;;;;;;;12.32;4.88;;;;;;;17.56;74.13;101314.63;5031783;28;20049;-63
2021/08/22 04:52:34;;;;;;;11.18;4.85;;;;;;;17.70;73.60;101319.84;5033215;28;20060;-62
2021/08/22 04:55:04;;;;;;;13.63;5.30;;;;;;;17.80;73.68;101323.00;5033493;28;20049;-70
2021/08/22 04:57:36;;;;;;;14.98;5.28;;;;;;;17.64;73.79;101315.69;5033114;28;20054;-71
2021/08/22 05:00:03;;;;;;;;;;;;;;;17.51;73.78;101323.22;5034022;28;20074;-70
2021/08/22 05:02:31;;;;;;;15.60;4.88;;;;;;;17.69;73.53;101327.44;5034116;28;20004;-63
2021/08/22 05:04:59;;;;;;;12.23;4.53;;;;;;;17.71;73.26;101327.88;5015606;28;20045;-62
2021/08/22 05:07:26;;;;;;;12.13;4.45;;;;;;;17.64;74.15;101333.19;5031874;28;20148;-63
2021/08/22 05:09:53;;;;;;;13.75;4.95;;;;;;;17.83;72.92;101330.69;5033877;28;20053;-64
2021/08/22 05:12:21;;;;;;;11.05;4.07;;;;;;;17.77;73.11;101329.28;5019232;28;20060;-63
2021/08/22 05:14:48;;;;;;;13.07;4.50;;;;;;;17.90;72.91;101336.47;5057025;28;20049;-70
2021/08/22 05:17:15;;;;;;;13.52;4.85;;;;;;;17.88;72.69;101329.66;5057383;28;20049;-70
2021/08/22 05:19:42;;;;;;;17.33;5.60;;;;;;;17.96;71.87;101328.69;5039296;28;20056;-70
2021/08/22 05:22:09;;;;;;;13.05;4.90;;;;;;;17.94;71.84;101323.47;5057096;28;20056;-70
2021/08/22 05:24:37;;;;;;;12.93;4.57;;;;;;;17.85;72.66;101325.56;5056675;28;20056;-70
2021/08/22 05:27:04;;;;;;;15.20;5.05;;;;;;;17.92;71.64;101322.22;5054845;28;20056;-61
2021/08/22 05:29:31;;;;;;;14.27;4.68;;;;;;;17.76;72.74;101324.88;5038872;28;20120;-62
2021/08/22 05:32:01;;;;;;;13.45;4.68;;;;;;;17.57;73.10;101324.59;5056801;28;20049;-69
2021/08/22 05:34:28;;;;;;;13.53;4.97;;;;;;;17.71;72.88;101330.66;5055400;28;20064;-62
2021/08/22 05:36:55;;;;;;;13.18;5.25;;;;;;;17.76;73.02;101338.81;5022399;28;20045;-62
2021/08/22 05:39:23;;;;;;;17.90;4.75;;;;;;;17.58;73.11;101336.56;5055447;28;20056;-62
2021/08/22 05:41:50;;;;;;;12.93;4.53;;;;;;;17.58;72.83;101331.00;5056167;28;20160;-62
2021/08/22 05:44:17;;;;;;;11.82;5.18;;;;;;;17.51;73.23;101333.53;5054814;28;20419;-63
2021/08/22 05:46:44;;;;;;;13.65;5.15;;;;;;;17.63;72.96;101339.13;5057141;28;20045;-69
2021/08/22 05:49:11;;;;;;;10.68;4.15;;;;;;;17.62;72.76;101340.28;5057012;28;20056;-70
2021/08/22 05:51:42;;;;;;;15.65;4.38;;;;;;;17.43;73.22;101343.59;5056646;28;20048;-70
2021/08/22 05:54:09;;;;;;;13.50;4.60;;;;;;;17.41;73.70;101345.09;5056313;28;20547;-70
2021/08/22 05:56:37;;;;;;;12.88;4.43;;;;;;;17.52;73.43;101344.31;5056598;28;20069;-70
2021/08/22 05:59:04;;;;;;;15.50;5.03;;;;;;;17.68;73.02;101347.25;5056323;28;20420;-70
2021/08/22 06:01:31;;;;;;;14.52;4.47;;;;;;;17.64;72.58;101343.56;5055172;28;20048;-70
2021/08/22 06:03:59;;;;;;;20.60;5.20;;;;;;;17.45;73.01;101349.59;5056079;28;20045;-70
2021/08/22 06:06:26;;;;;;;9.57;4.10;;;;;;;17.35;73.95;101357.59;5056045;28;20049;-70
2021/08/22 06:08:53;;;;;;;13.30;4.05;;;;;;;17.43;73.74;101365.06;5056139;28;20053;-71
2021/08/22 06:11:21;;;;;;;13.25;4.18;;;;;;;17.42;73.32;101358.66;5055979;28;20052;-71
2021/08/22 06:13:48;;;;;;;12.60;4.55;;;;;;;17.23;74.52;101365.91;5042626;28;20053;-70
2021/08/22 06:16:15;;;;;;;15.15;4.95;;;;;;;17.49;73.68;101378.44;5034341;28;20061;-63
2021/08/22 06:18:42;;;;;;;11.32;4.70;;;;;;;17.63;73.25;101370.59;5034755;28;20053;-70
2021/08/22 06:21:10;;;;;;;13.32;4.40;;;;;;;17.74;72.93;101363.41;5034606;28;20049;-63
2021/08/22 06:23:37;;;;;;;13.75;4.07;;;;;;;17.95;71.94;101372.50;5034351;28;20049;-70
2021/08/22 06:26:04;;;;;;;13.80;4.40;;;;;;;17.77;72.05;101371.09;5036326;28;20049;-70
2021/08/22 06:28:32;;;;;;;10.40;4.05;;;;;;;17.77;72.57;101376.66;5036568;28;20040;-70
2021/08/22 06:30:59;;;;;;;12.07;4.45;;;;;;;17.95;71.73;101374.47;5018661;28;20053;-71
2021/08/22 06:33:26;;;;;;;12.07;4.05;;;;;;;17.86;71.79;101371.81;5035969;28;20064;-63
2021/08/22 06:36:01;;;;;;;14.35;4.13;;;;;;;17.90;72.54;101380.28;5035310;28;20053;-62
2021/08/22 06:38:29;;;;;;;10.15;3.80;;;;;;;17.92;71.94;101377.97;5034252;28;20049;-62
2021/08/22 06:40:56;;;;;;;8.60;3.70;;;;;;;17.98;72.00;101380.19;5035461;28;20060;-62
2021/08/22 06:43:24;;;;;;;10.18;4.10;;;;;;;18.18;71.91;101386.00;5035510;28;20209;-63
2021/08/22 06:45:51;;;;;;;18.92;4.53;;;;;;;18.04;71.52;101383.56;5017749;28;20060;-63
2021/08/22 06:48:19;;;;;;;11.23;3.55;;;;;;;18.37;70.47;101377.84;5033968;28;20046;-63
2021/08/22 06:50:48;;;;;;;11.85;3.85;;;;;;;18.41;70.15;101384.41;5035303;28;20065;-63
2021/08/22 06:53:15;;;;;;;15.10;3.92;;;;;;;18.34;70.42;101386.94;5035217;28;20057;-62
2021/08/22 06:55:42;;;;;;;9.75;3.90;;;;;;;18.20;70.83;101389.25;5034971;28;20049;-62
2021/08/22 06:58:10;;;;;;;14.02;4.28;;;;;;;18.16;70.87;101397.50;5033538;28;20045;-62
2021/08/22 07:00:37;;;;;;;8.98;3.60;;;;;;;18.24;70.81;101392.94;5035180;28;20053;-62
2021/08/22 07:03:04;;;;;;;14.50;4.00;;;;;;;18.40;70.35;101400.31;5035173;28;20064;-63
2021/08/22 07:05:32;;;;;;;11.95;3.78;;;;;;;18.49;69.97;101389.03;5000299;28;20072;-63
2021/08/22 07:07:59;;;;;;;13.18;3.97;;;;;;;18.65;69.90;101412.28;5035029;28;20053;-63
2021/08/22 07:10:27;;;;;;;10.55;3.15;;;;;;;18.62;69.12;101401.81;5033581;28;20048;-63
2021/08/22 07:12:54;;;;;;;16.88;4.05;;;;;;;18.53;69.48;101415.88;5040118;28;20059;-63
2021/08/22 07:15:22;;;;;;;12.00;4.00;;;;;;;18.14;70.63;101408.19;5053225;28;20044;-63
2021/08/22 07:17:49;;;;;;;11.27;4.13;;;;;;;17.95;72.06;101411.53;5054377;28;20052;-63
2021/08/22 07:20:17;;;;;;;12.15;3.25;;;;;;;18.16;71.40;101405.03;5053195;28;20061;-63
2021/08/22 07:22:44;;;;;;;14.98;3.65;;;;;;;18.24;70.58;101399.34;5054448;28;20081;-63
2021/08/22 07:25:11;;;;;;;13.60;3.72;;;;;;;18.07;71.43;101410.72;5054059;28;20060;-63
2021/08/22 07:27:39;;;;;;;11.65;3.60;;;;;;;18.01;71.91;101414.09;5035903;28;20404;-63
2021/08/22 07:30:06;;;;;;;11.88;3.08;;;;;;;17.99;71.50;101418.03;5053068;28;20056;-62
2021/08/22 07:32:34;;;;;;;9.75;3.50;;;;;;;17.94;72.03;101425.78;5054558;28;20262;-62
2021/08/22 07:35:01;;;;;;;14.25;3.70;;;;;;;17.86;72.34;101424.75;5052136;28;20411;-62
2021/08/22 07:37:28;;;;;;;10.20;3.20;;;;;;;18.12;71.29;101426.41;5052787;28;20040;-63
2021/08/22 07:39:56;;;;;;;10.82;3.20;;;;;;;18.18;71.03;101427.81;5054143;28;20056;-62
2021/08/22 07:42:23;;;;;;;12.50;3.63;;;;;;;18.51;70.12;101432.16;5053849;28;20049;-63
2021/08/22 07:44:50;;;;;;;9.55;3.03;;;;;;;18.20;70.84;101434.66;5054055;28;20170;-62
2021/08/22 07:47:18;;;;;;;9.23;3.53;;;;;;;18.50;69.86;101438.06;5053774;28;20060;-63
2021/08/22 07:49:45;;;;;;;9.68;3.33;;;;;;;18.38;69.27;101429.69;5053717;28;20408;-63
2021/08/22 07:52:12;;;;;;;10.30;3.38;;;;;;;18.44;69.42;101431.13;5052687;28;20071;-63
2021/08/22 07:54:39;;;;;;;9.55;3.00;;;;;;;18.20;70.46;101431.88;5053666;28;20044;-63
2021/08/22 07:57:07;;;;;;;9.65;3.20;;;;;;;18.08;70.69;101439.44;5053280;28;20071;-63
2021/08/22 07:59:38;;;;;;;8.50;3.03;;;;;;;18.12;70.35;101424.44;5053692;28;20053;-62
2021/08/22 08:02:05;;;;;;;11.70;3.35;;;;;;;18.38;69.43;101427.72;5053755;28;20049;-63
2021/08/22 08:04:33;;;;;;;8.15;2.70;;;;;;;18.31;69.82;101429.44;5053699;28;20056;-62
2021/08/22 08:07:00;;;;;;;12.50;3.28;;;;;;;18.44;69.09;101434.72;5053441;28;20057;-63
2021/08/22 08:09:28;;;;;;;10.25;3.28;;;;;;;18.68;69.02;101442.25;5053732;28;20219;-63
2021/08/22 08:11:58;;;;;;;11.63;3.00;;;;;;;18.80;68.33;101436.66;5053312;28;20059;-63
2021/08/22 08:14:25;;;;;;;13.93;3.00;;;;;;;18.64;67.95;101439.34;5016956;28;20056;-63
2021/08/22 08:16:53;;;;;;;8.90;3.20;;;;;;;18.39;69.24;101434.94;5015134;28;20049;-61
2021/08/22 08:19:20;;;;;;;10.63;3.50;;;;;;;18.62;68.81;101443.69;5033990;28;20493;-63
2021/08/22 08:21:47;;;;;;;12.90;3.45;;;;;;;18.72;68.72;101446.00;5033232;28;20061;-62
2021/08/22 08:24:14;;;;;;;11.50;3.03;;;;;;;18.81;67.72;101436.31;5032147;28;20076;-63
2021/08/22 08:26:42;;;;;;;13.27;3.05;;;;;;;18.99;67.31;101445.22;5033288;28;20057;-62
2021/08/22 08:29:09;;;;;;;8.57;2.85;;;;;;;18.94;67.39;101451.88;5033236;28;20052;-63
2021/08/22 08:31:36;;;;;;;11.05;3.00;;;;;;;18.86;67.88;101446.44;5033530;28;20045;-63
2021/08/22 08:34:04;;;;;;;10.57;2.60;;;;;;;18.83;66.45;101452.69;5033189;28;20168;-63
2021/08/22 08:36:31;;;;;;;11.90;3.35;;;;;;;18.68;68.14;101454.25;5033392;28;20057;-63
2021/08/22 08:38:59;;;;;;;8.35;3.35;;;;;;;18.61;67.53;101450.41;5033004;28;20061;-61
2021/08/22 08:41:26;;;;;;;9.30;2.90;;;;;;;18.64;68.43;101455.28;5031332;28;20049;-63
2021/08/22 08:43:55;;;;;;;9.05;3.00;;;;;;;18.83;67.43;101459.09;5031904;28;20054;-62
2021/08/22 08:46:26;;;;;;;8.93;2.58;;;;;;;18.83;67.96;101455.50;5034830;28;20080;-63
2021/08/22 08:48:59;;;;;;;10.73;2.92;;;;;;;18.86;66.90;101452.03;5037311;28;20052;-63
2021/08/22 08:51:35;;;;;;;6.93;2.60;;;;;;;18.92;66.18;101458.97;5037573;28;20049;-63
2021/08/22 08:54:11;;;;;;;11.18;2.78;;;;;;;18.94;66.49;101459.44;5037718;28;20061;-63
2021/08/22 08:56:41;;;;;;;9.05;2.53;;;;;;;19.03;65.76;101452.56;5035737;28;20053;-62
2021/08/22 08:59:10;;;;;;;7.97;2.13;;;;;;;19.18;64.71;101470.56;5037206;28;20069;-63
2021/08/22 09:01:38;;;;;;;7.67;2.03;;;;;;;19.18;64.07;101462.19;5037057;28;20067;-63
2021/08/22 09:04:15;;;;;;;8.52;2.85;;;;;;;19.16;64.68;101458.91;5035566;28;20378;-63
2021/08/22 09:07:07;;;;;;;7.68;2.63;;;;;;;19.50;64.48;101463.16;5037119;28;20212;-63
2021/08/22 09:09:56;;;;;;;8.32;2.40;;;;;;;19.81;63.63;101458.47;5037040;28;20052;-62
2021/08/22 09:13:02;;;;;;;8.23;2.40;;;;;;;19.71;63.82;101459.00;5036247;28;20080;-63
2021/08/22 09:15:56;;;;;;;7.05;2.63;;;;;;;19.73;63.11;101455.84;5037102;28;20057;-63
2021/08/22 09:18:56;;;;;;;9.20;2.40;;;;;;;19.58;63.89;101459.41;5055671;28;20381;-64
2021/08/22 09:21:37;;;;;;;10.75;2.50;;;;;;;19.90;63.16;101461.91;5056966;28;20060;-63
2021/08/22 09:24:29;;;;;;;7.63;2.42;;;;;;;20.13;61.81;101462.94;5038857;28;20064;-64
2021/08/22 09:27:15;;;;;;;6.63;2.38;;;;;;;20.10;61.46;101462.84;5056311;28;20052;-63
2021/08/22 09:30:36;;;;;;;10.68;2.60;;;;;;;19.92;61.57;101465.19;5056499;28;20045;-64
2021/08/22 09:33:23;;;;;;;9.63;2.10;;;;;;;19.85;61.38;101464.97;5013980;28;20058;-63
2021/08/22 09:36:02;;;;;;;9.70;2.55;;;;;;;19.96;62.00;101456.88;5056401;28;20090;-63
2021/08/22 09:39:02;;;;;;;7.60;2.50;;;;;;;20.22;61.85;101467.56;5056388;28;20053;-62
2021/08/22 09:42:12;;;;;;;5.23;2.23;;;;;;;20.09;60.37;101473.22;5034864;28;20299;-63
2021/08/22 09:45:21;;;;;;;8.43;1.75;;;;;;;19.64;61.38;101472.78;5054609;28;20061;-63
2021/08/22 09:47:54;;;;;;;8.95;2.40;;;;;;;19.27;62.87;101485.19;5041872;28;20056;-62
2021/08/22 09:50:41;;;;;;;7.40;2.00;;;;;;;19.14;64.39;101486.41;5054735;28;20048;-62
2021/08/22 09:53:58;;;;;;;5.90;1.50;;;;;;;19.05;64.68;101482.94;5054876;28;20057;-62
2021/08/22 09:57:04;;;;;;;5.35;1.20;;;;;;;19.06;63.90;101476.16;5054212;28;20155;-62
2021/08/22 09:59:37;;;;;;;5.65;2.08;;;;;;;19.26;63.39;101479.97;5061440;28;20048;-63
2021/08/22 10:02:15;;;;;;;4.15;1.38;;;;;;;19.48;61.77;101485.88;5054819;28;20515;-63
2021/08/22 10:04:55;;;;;;;3.47;1.20;;;;;;;19.43;62.15;101482.50;5055941;28;20057;-63
2021/08/22 10:07:47;;;;;;;2.90;1.17;;;;;;;19.51;61.46;101485.16;5055939;28;20281;-62
2021/08/22 10:11:02;;;;;;;3.45;1.08;;;;;;;19.69;61.12;101491.25;5055977;28;20049;-65
2021/08/22 10:13:30;;;;;;;5.32;1.98;;;;;;;19.96;61.60;101496.81;5002866;28;20450;-63
2021/08/22 10:15:58;;;;;;;4.97;1.40;;;;;;;20.19;61.40;101491.47;4993470;28;20497;-62
2021/08/22 10:18:25;;;;;;;3.55;1.20;;;;;;;20.02;62.74;101481.44;5007388;28;20076;-64
2021/08/22 10:21:06;;;;;;;4.85;1.52;;;;;;;20.12;62.90;101488.47;5034434;28;20056;-64
2021/08/22 10:23:38;;;;;;;5.20;1.50;;;;;;;20.19;62.50;101473.91;5034548;28;20492;-63
2021/08/22 10:26:05;;;;;;;4.65;1.77;;;;;;;20.39;62.15;101473.63;5017602;28;20053;-66
2021/08/22 10:28:45;;;;;;;3.95;1.38;;;;;;;20.11;62.22;101479.28;5034281;28;20049;-63
2021/08/22 10:31:13;;;;;;;7.53;1.95;;;;;;;20.26;62.46;101482.47;5035392;28;20053;-63
2021/08/22 10:34:12;;;;;;;8.07;1.55;;;;;;;20.49;61.77;101469.47;5035475;28;20049;-63
2021/08/22 10:36:40;;;;;;;5.45;1.45;;;;;;;20.53;59.56;101462.78;5033764;28;20056;-63
2021/08/22 10:39:19;;;;;;;4.10;1.48;;;;;;;20.55;60.59;101456.84;5033828;28;20049;-65
2021/08/22 10:41:47;;;;;;;7.30;2.13;;;;;;;20.84;60.00;101465.56;5035221;28;20053;-63
2021/08/22 10:44:33;;;;;;;9.02;2.00;;;;;;;20.79;59.54;101460.22;5034306;28;20405;-70
2021/08/22 10:47:05;;;;;;;5.85;1.77;;;;;;;20.68;58.80;101463.94;5035260;28;20065;-71
2021/08/22 10:49:51;;;;;;;5.70;1.90;;;;;;;20.52;59.50;101460.38;5035697;28;20489;-72
2021/08/22 10:52:34;;;;;;;4.85;1.45;;;;;;;20.56;58.21;101456.47;5035418;28;20045;-70
2021/08/22 10:55:14;;;;;;;4.65;1.17;;;;;;;20.46;58.75;101467.41;5035149;28;20524;-70
2021/08/22 10:57:48;;;;;;;9.93;1.90;;;;;;;20.55;59.47;101454.03;5033679;28;20065;-71
2021/08/22 11:00:36;;;;;;;7.10;1.38;;;;;;;20.75;57.96;101456.53;5035088;28;20517;-71
2021/08/22 11:03:06;;;;;;;5.60;1.52;;;;;;;20.77;58.33;101458.97;5035086;28;20057;-70
2021/08/22 11:05:35;;;;;;;6.57;1.57;;;;;;;20.72;58.09;101462.03;5034546;28;20072;-71
2021/08/22 11:08:23;;;;;;;4.18;1.40;;;;;;;20.27;60.08;101459.72;5033264;28;20057;-71
2021/08/22 11:10:57;;;;;;;4.85;1.63;;;;;;;20.33;60.69;101461.06;5035088;28;20053;-70
2021/08/22 11:13:26;;;;;;;5.28;1.60;;;;;;;20.65;59.94;101447.88;5044508;28;20052;-70
2021/08/22 11:15:53;;;;;;;5.05;1.50;;;;;;;20.78;59.55;101450.19;5054680;28;20053;-70
2021/08/22 11:18:21;;;;;;;4.75;1.65;;;;;;;21.17;58.98;101443.53;5054955;28;20071;-69
2021/08/22 11:20:48;;;;;;;9.32;2.03;;;;;;;21.12;58.46;101448.59;5054790;28;20045;-71
2021/08/22 11:23:18;;;;;;;6.45;1.90;;;;;;;21.24;58.88;101451.25;5055278;28;20056;-71
2021/08/22 11:25:51;;;;;;;;;;;;;;;21.44;58.22;101454.91;5053944;28;20484;-72
2021/08/22 11:28:18;;;;;;;5.53;1.42;;;;;;;21.36;57.81;101453.13;5054045;28;20410;-71
2021/08/22 11:30:46;;;;;;;7.10;1.70;;;;;;;21.62;57.62;101456.88;5054745;28;20063;-72
2021/08/22 11:33:14;;;;;;;4.30;1.40;;;;;;;20.88;58.09;101457.22;5053287;28;20131;-71
2021/08/22 11:35:45;;;;;;;6.50;1.60;;;;;;;20.90;58.58;101464.06;5053145;28;20563;-71
2021/08/22 11:38:12;;;;;;;;;;;;;;;20.94;58.16;101462.19;5054952;28;20515;-71
2021/08/22 11:40:39;;;;;;;5.60;1.58;;;;;;;21.05;57.92;101451.25;5052226;28;19920;-70